Orlo Vista, Florida
Current Conditions -  °F | °C
As of 11:53 PM on Saturday 20 Dec 2014 (Local Time) from KORL Reporting Station
Broken Clouds Broken Clouds  
Wind Chill: 65°   Ceiling: 8500
Heat Index: 65°   Visibility: 10mi
Dew Point: 62°   Wind: 6mph
Humidity: 90%   Direction: 70°ENE
Pressure: 30.09"   Gusts: NA
Location:  28.5173°N, 81.4447°W
Report Text: KORL 210453Z 07005KT 10SM BKN085 18/17 A3009 RMK AO2 SLP192 T01830167 402500128
Loading
Personal Weather Stations






























Interactive Weather Map New forecast layout! Learn more

10-Day Weather Forecast

Advertisements
Track Severe Weather on mobile